Time;durP1;ratioP1;P1;durP2;ratioP2;P2;SDS_P1;SDS_P2;PMS_P1;PMS_P2;Temp;Humidity;BMP_temperature;BMP_pressure;BME280_temperature;BME280_humidity;BME280_pressure;Samples;Min_cycle;Max_cycle;Signal;HPM_P1;HPM_P2
2023/09/03 06:46:14;;;;;;;;;26.00;26.00;;;;;;;;4773410;29;45413;-96
2023/09/03 06:48:40;;;;;;;;;33.67;32.33;;;;;;;;4851437;24;45512;-95
2023/09/03 06:51:05;;;;;;;;;33.67;32.67;;;;;;;;4713887;30;45563;-94
2023/09/03 06:53:40;;;;;;;;;28.00;26.33;;;;;;;;4717627;30;45936;-96
2023/09/03 06:56:05;;;;;;;;;31.33;29.33;;;;;;;;4738467;30;45446;-96
2023/09/03 07:01:33;;;;;;;;;35.33;32.33;;;;;;;;4739995;29;45506;-92
2023/09/03 07:03:59;;;;;;;;;35.33;32.33;;;;;;;;4752159;29;45260;-93
2023/09/03 07:06:24;;;;;;;;;35.50;33.00;;;;;;;;4760235;29;45661;-93
2023/09/03 07:08:55;;;;;;;;;33.67;32.00;;;;;;;;4736610;29;45654;-96
2023/09/03 07:11:20;;;;;;;;;35.33;33.33;;;;;;;;4745248;29;45450;-94
2023/09/03 07:13:46;;;;;;;;;31.00;29.67;;;;;;;;4756193;29;45337;-93
2023/09/03 07:16:11;;;;;;;;;34.00;32.00;;;;;;;;4748112;29;45350;-93
2023/09/03 07:18:36;;;;;;;;;32.33;31.33;;;;;;;;4752536;29;45308;-90
2023/09/03 07:21:02;;;;;;;;;22.33;22.33;;;;;;;;4751681;29;45495;-96
2023/09/03 07:23:28;;;;;;;;;22.33;22.33;;;;;;;;4759900;29;46361;-96
2023/09/03 07:25:53;;;;;;;;;26.67;25.67;;;;;;;;4742814;29;45273;-96
2023/09/03 07:28:18;;;;;;;;;35.33;32.00;;;;;;;;4737184;29;45449;-94
2023/09/03 07:30:43;;;;;;;;;20.00;20.00;;;;;;;;4752796;29;45438;-96
2023/09/03 07:33:09;;;;;;;;;25.67;25.67;;;;;;;;4751601;29;46396;-96
2023/09/03 07:35:34;;;;;;;;;27.33;27.33;;;;;;;;4751228;29;45271;-93
2023/09/03 07:37:59;;;;;;;;;21.67;21.67;;;;;;;;4728122;30;45505;-93
2023/09/03 07:40:24;;;;;;;;;22.67;21.33;;;;;;;;4744198;29;45449;-90
2023/09/03 07:42:49;;;;;;;;;20.33;20.33;;;;;;;;4730968;29;47090;-91
2023/09/03 07:45:15;;;;;;;;;28.33;27.33;;;;;;;;4748099;29;45227;-90
2023/09/03 07:47:40;;;;;;;;;29.33;29.33;;;;;;;;4749034;29;45713;-90
2023/09/03 07:50:05;;;;;;;;;21.67;21.67;;;;;;;;4748182;29;45274;-90
2023/09/03 07:52:31;;;;;;;;;27.00;27.00;;;;;;;;4751153;29;45523;-90
2023/09/03 07:54:56;;;;;;;;;26.00;25.67;;;;;;;;4745824;29;45334;-90
2023/09/03 07:57:21;;;;;;;;;24.67;24.67;;;;;;;;4739172;29;45582;-89
2023/09/03 07:59:46;;;;;;;;;23.00;23.00;;;;;;;;4756806;29;45541;-89
2023/09/03 08:02:12;;;;;;;;;20.67;20.67;;;;;;;;4749116;29;45589;-90
2023/09/03 08:04:47;;;;;;;;;17.00;17.00;;;;;;;;4753284;29;45535;-92
2023/09/03 08:07:14;;;;;;;;;25.67;25.67;;;;;;;;4729101;30;45791;-91
2023/09/03 08:09:40;;;;;;;;;28.33;28.33;;;;;;;;4743809;29;45810;-91
2023/09/03 08:12:05;;;;;;;;;24.67;24.67;;;;;;;;4755052;29;46132;-91
2023/09/03 08:14:30;;;;;;;;;25.00;25.00;;;;;;;;4746156;29;45474;-90
2023/09/03 08:16:56;;;;;;;;;24.33;24.33;;;;;;;;4755371;29;45683;-91
2023/09/03 08:19:21;;;;;;;;;16.67;16.67;;;;;;;;4731444;29;45584;-91
2023/09/03 08:21:47;;;;;;;;;31.33;30.67;;;;;;;;4739590;29;47296;-91
2023/09/03 08:24:28;;;;;;;;;29.33;25.67;;;;;;;;4750469;29;46385;-90
2023/09/03 08:26:54;;;;;;;;;26.33;26.33;;;;;;;;4740491;29;45526;-91
2023/09/03 08:29:19;;;;;;;;;20.33;20.33;;;;;;;;4749401;29;45522;-90
2023/09/03 08:31:44;;;;;;;;;24.00;22.67;;;;;;;;4749211;29;45678;-91
2023/09/03 08:34:09;;;;;;;;;28.00;28.00;;;;;;;;4751880;29;45484;-96
2023/09/03 08:36:35;;;;;;;;;24.00;23.33;;;;;;;;4730914;29;45394;-91
2023/09/03 08:39:01;;;;;;;;;19.67;19.67;;;;;;;;4755464;29;45694;-91
2023/09/03 08:41:27;;;;;;;;;17.67;17.67;;;;;;;;4726628;30;47233;-90
2023/09/03 08:43:55;;;;;;;;;15.00;15.00;;;;;;;;4754177;29;45745;-91
2023/09/03 08:46:23;;;;;;;;;26.00;24.67;;;;;;;;4745302;29;45315;-91
2023/09/03 08:48:48;;;;;;;;;20.00;20.00;;;;;;;;4747602;29;45535;-90
2023/09/03 08:51:14;;;;;;;;;15.33;15.33;;;;;;;;4756653;29;46787;-91
2023/09/03 08:53:39;;;;;;;;;17.33;17.33;;;;;;;;4752816;29;45384;-90
2023/09/03 08:56:04;;;;;;;;;19.33;19.33;;;;;;;;4752775;29;45270;-90
2023/09/03 08:58:29;;;;;;;;;14.67;14.67;;;;;;;;4758017;29;45573;-91
2023/09/03 09:00:55;;;;;;;;;11.67;11.67;;;;;;;;4758390;29;46564;-91
2023/09/03 09:03:27;;;;;;;;;19.67;19.67;;;;;;;;4752204;29;45444;-90
2023/09/03 09:05:53;;;;;;;;;17.33;17.33;;;;;;;;4753363;29;45534;-90
2023/09/03 09:08:19;;;;;;;;;13.67;13.67;;;;;;;;4752740;29;45560;-90
2023/09/03 09:10:48;;;;;;;;;13.33;13.33;;;;;;;;4758255;29;45356;-90
2023/09/03 09:13:17;;;;;;;;;15.33;15.33;;;;;;;;4753547;29;45240;-90
2023/09/03 09:15:44;;;;;;;;;24.00;24.00;;;;;;;;4744737;29;45251;-90
2023/09/03 09:18:09;;;;;;;;;20.00;20.00;;;;;;;;4748087;29;45447;-90
2023/09/03 09:20:38;;;;;;;;;20.00;20.00;;;;;;;;4758076;29;45507;-90
2023/09/03 09:23:04;;;;;;;;;16.33;16.33;;;;;;;;4756706;29;45180;-90
2023/09/03 09:25:29;;;;;;;;;22.00;22.00;;;;;;;;4747054;29;45229;-90
2023/09/03 09:27:55;;;;;;;;;21.67;21.67;;;;;;;;4740719;30;45162;-91
2023/09/03 09:30:22;;;;;;;;;13.00;13.00;;;;;;;;4740609;29;46356;-91
2023/09/03 09:32:47;;;;;;;;;14.67;14.67;;;;;;;;4742234;29;45275;-91
2023/09/03 09:35:25;;;;;;;;;14.67;14.67;;;;;;;;4743875;29;45677;-90
2023/09/03 09:37:50;;;;;;;;;12.33;12.33;;;;;;;;4754226;29;45445;-91
2023/09/03 09:40:24;;;;;;;;;18.33;18.33;;;;;;;;4739459;29;46575;-90
2023/09/03 09:42:57;;;;;;;;;18.00;18.00;;;;;;;;4743699;29;45692;-91
2023/09/03 09:45:22;;;;;;;;;14.00;14.00;;;;;;;;4756380;29;45254;-90
2023/09/03 09:48:01;;;;;;;;;10.33;10.33;;;;;;;;4755267;29;45475;-90
2023/09/03 09:50:35;;;;;;;;;16.33;16.33;;;;;;;;4757104;29;45577;-91
2023/09/03 09:53:04;;;;;;;;;14.33;14.33;;;;;;;;4752120;29;45393;-91
2023/09/03 09:55:31;;;;;;;;;17.67;17.33;;;;;;;;4740325;30;45297;-91
2023/09/03 09:57:57;;;;;;;;;11.67;11.67;;;;;;;;4746135;29;45339;-91
2023/09/03 10:00:32;;;;;;;;;10.33;9.67;;;;;;;;4743360;29;45413;-91
2023/09/03 10:02:57;;;;;;;;;14.33;14.33;;;;;;;;4749924;29;45500;-90
2023/09/03 10:05:22;;;;;;;;;7.00;7.00;;;;;;;;4745782;29;45232;-90
2023/09/03 10:07:48;;;;;;;;;16.00;15.00;;;;;;;;4752999;29;45259;-91
2023/09/03 10:10:14;;;;;;;;;11.67;11.67;;;;;;;;4756978;29;46371;-90
2023/09/03 10:12:39;;;;;;;;;10.67;10.67;;;;;;;;4749298;29;45390;-90
2023/09/03 10:15:05;;;;;;;;;12.33;12.33;;;;;;;;4739493;29;45612;-91
2023/09/03 10:17:30;;;;;;;;;14.00;14.00;;;;;;;;4753311;29;45655;-91
2023/09/03 10:19:58;;;;;;;;;14.00;14.00;;;;;;;;4754344;29;45437;-91
2023/09/03 10:22:24;;;;;;;;;14.67;14.67;;;;;;;;4751137;29;45317;-91
2023/09/03 10:24:53;;;;;;;;;8.00;8.00;;;;;;;;4748545;29;45420;-91
2023/09/03 10:27:21;;;;;;;;;10.33;10.33;;;;;;;;4740645;29;45524;-91
2023/09/03 10:29:47;;;;;;;;;8.00;8.00;;;;;;;;4751429;29;45338;-91
2023/09/03 10:32:14;;;;;;;;;8.00;8.00;;;;;;;;4753834;29;45480;-91
2023/09/03 10:34:39;;;;;;;;;12.00;12.00;;;;;;;;4740016;30;45515;-91
2023/09/03 10:37:12;;;;;;;;;11.00;11.00;;;;;;;;4750986;29;45415;-90
2023/09/03 10:39:40;;;;;;;;;12.00;12.00;;;;;;;;4755245;29;46703;-91
2023/09/03 10:42:14;;;;;;;;;10.00;10.00;;;;;;;;4728686;29;45346;-91
2023/09/03 10:44:43;;;;;;;;;8.00;8.00;;;;;;;;4752178;29;45454;-91
2023/09/03 10:47:11;;;;;;;;;9.67;9.67;;;;;;;;4750622;29;45614;-91
2023/09/03 10:49:40;;;;;;;;;9.67;9.67;;;;;;;;4747009;29;45498;-91
2023/09/03 10:52:24;;;;;;;;;10.00;10.00;;;;;;;;4736728;29;45289;-91
2023/09/03 10:55:08;;;;;;;;;9.33;9.33;;;;;;;;4756940;29;45282;-91
2023/09/03 10:57:33;;;;;;;;;8.00;8.00;;;;;;;;4749636;29;45332;-91
2023/09/03 11:00:00;;;;;;;;;8.33;8.33;;;;;;;;4739574;29;45358;-90
2023/09/03 11:02:26;;;;;;;;;9.67;9.67;;;;;;;;4751141;29;45234;-91
2023/09/03 11:05:12;;;;;;;;;12.67;12.67;;;;;;;;4742228;29;45307;-91
2023/09/03 11:07:37;;;;;;;;;11.33;11.33;;;;;;;;4731314;30;45569;-91
2023/09/03 11:10:32;;;;;;;;;12.33;12.33;;;;;;;;4742239;30;45281;-91
2023/09/03 11:12:57;;;;;;;;;10.00;10.00;;;;;;;;4734393;29;45671;-90
2023/09/03 11:15:22;;;;;;;;;6.33;6.33;;;;;;;;4747919;29;45349;-91
2023/09/03 11:17:51;;;;;;;;;11.00;11.00;;;;;;;;4749452;29;46805;-91
2023/09/03 11:20:30;;;;;;;;;13.33;11.33;;;;;;;;4746916;29;46982;-91
2023/09/03 11:22:55;;;;;;;;;5.00;5.00;;;;;;;;4757742;29;45260;-91
2023/09/03 11:25:31;;;;;;;;;8.33;8.33;;;;;;;;4746428;29;45378;-91
2023/09/03 11:27:56;;;;;;;;;13.33;13.33;;;;;;;;4745705;29;45532;-91
2023/09/03 11:30:21;;;;;;;;;5.33;5.33;;;;;;;;4747779;29;46452;-91
2023/09/03 11:32:46;;;;;;;;;11.33;11.33;;;;;;;;4739169;30;45331;-91
2023/09/03 11:35:11;;;;;;;;;5.33;5.33;;;;;;;;4756506;29;45389;-90
2023/09/03 11:37:37;;;;;;;;;3.00;3.00;;;;;;;;4747099;29;45390;-91
2023/09/03 11:40:04;;;;;;;;;5.00;5.00;;;;;;;;4750394;29;46198;-90
2023/09/03 11:42:29;;;;;;;;;3.67;3.67;;;;;;;;4751431;29;45643;-90
2023/09/03 11:44:55;;;;;;;;;4.00;3.00;;;;;;;;4755960;29;45325;-91
2023/09/03 11:47:20;;;;;;;;;3.33;3.33;;;;;;;;4737729;29;45651;-91
2023/09/03 11:49:47;;;;;;;;;6.00;6.00;;;;;;;;4753780;29;45485;-91
2023/09/03 11:52:13;;;;;;;;;6.00;6.00;;;;;;;;4748177;29;45465;-91
2023/09/03 11:54:38;;;;;;;;;9.00;9.00;;;;;;;;4753457;29;45243;-91
2023/09/03 11:57:05;;;;;;;;;7.33;7.33;;;;;;;;4739668;29;45421;-90
2023/09/03 11:59:30;;;;;;;;;8.33;8.33;;;;;;;;4749423;29;45714;-91
2023/09/03 12:01:56;;;;;;;;;5.67;5.67;;;;;;;;4756593;29;45596;-91
2023/09/03 12:04:21;;;;;;;;;8.00;8.00;;;;;;;;4757074;29;45333;-91
2023/09/03 12:06:46;;;;;;;;;7.00;7.00;;;;;;;;4737748;29;45522;-91
2023/09/03 12:09:12;;;;;;;;;6.00;6.00;;;;;;;;4758337;29;46615;-91
2023/09/03 12:11:38;;;;;;;;;6.00;6.00;;;;;;;;4744364;29;45510;-90
2023/09/03 12:14:03;;;;;;;;;6.33;6.33;;;;;;;;4741303;30;45176;-90
2023/09/03 12:16:28;;;;;;;;;8.00;8.00;;;;;;;;4740054;30;45468;-91
2023/09/03 12:18:56;;;;;;;;;8.33;8.33;;;;;;;;4756676;29;46251;-91
2023/09/03 12:21:29;;;;;;;;;8.00;8.00;;;;;;;;4749871;29;45331;-90
2023/09/03 12:23:54;;;;;;;;;7.00;7.00;;;;;;;;4752602;29;45455;-91
2023/09/03 12:26:20;;;;;;;;;7.00;7.00;;;;;;;;4758695;29;45437;-91
2023/09/03 12:28:45;;;;;;;;;5.67;5.67;;;;;;;;4742385;29;45514;-91
2023/09/03 12:31:10;;;;;;;;;9.67;9.67;;;;;;;;4749014;29;45376;-91
2023/09/03 12:33:48;;;;;;;;;9.67;9.67;;;;;;;;4746856;29;45352;-91
2023/09/03 12:36:18;;;;;;;;;11.00;11.00;;;;;;;;4751793;29;45157;-91
2023/09/03 12:39:09;;;;;;;;;6.33;6.33;;;;;;;;4752382;29;45368;-90
2023/09/03 12:41:35;;;;;;;;;8.33;8.33;;;;;;;;4739305;29;45312;-91
2023/09/03 12:44:06;;;;;;;;;8.67;8.67;;;;;;;;4741621;29;45539;-90
2023/09/03 12:46:33;;;;;;;;;7.33;7.33;;;;;;;;4755965;29;45498;-90
2023/09/03 12:48:58;;;;;;;;;8.00;8.00;;;;;;;;4756482;29;46422;-90
2023/09/03 12:51:23;;;;;;;;;4.00;4.00;;;;;;;;4741853;29;45343;-90
2023/09/03 12:53:48;;;;;;;;;6.00;6.00;;;;;;;;4752101;29;45337;-91
2023/09/03 12:56:14;;;;;;;;;6.00;6.00;;;;;;;;4754196;29;45329;-90
2023/09/03 12:58:39;;;;;;;;;5.67;5.67;;;;;;;;4760046;29;45147;-91
2023/09/03 13:01:05;;;;;;;;;5.00;5.00;;;;;;;;4749733;29;45221;-91
2023/09/03 13:03:30;;;;;;;;;7.33;7.33;;;;;;;;4744049;29;45226;-90
2023/09/03 13:05:56;;;;;;;;;6.33;6.33;;;;;;;;4751826;29;45761;-91
2023/09/03 13:08:22;;;;;;;;;6.67;6.67;;;;;;;;4743478;29;45242;-90
2023/09/03 13:10:47;;;;;;;;;6.00;6.00;;;;;;;;4745602;29;45595;-90
2023/09/03 13:13:12;;;;;;;;;6.00;6.00;;;;;;;;4741171;29;45383;-91
2023/09/03 13:15:39;;;;;;;;;5.67;5.67;;;;;;;;4747337;29;45551;-91
2023/09/03 13:18:04;;;;;;;;;7.00;7.00;;;;;;;;4747998;29;46154;-90
2023/09/03 13:20:29;;;;;;;;;6.67;6.67;;;;;;;;4741292;29;45428;-91
2023/09/03 13:22:54;;;;;;;;;7.00;7.00;;;;;;;;4756086;29;45492;-91
2023/09/03 13:25:20;;;;;;;;;8.00;8.00;;;;;;;;4755710;29;45641;-91
2023/09/03 13:27:45;;;;;;;;;5.67;5.67;;;;;;;;4740103;30;45418;-91
2023/09/03 13:30:10;;;;;;;;;5.00;5.00;;;;;;;;4742841;29;45406;-91
2023/09/03 13:32:35;;;;;;;;;7.00;7.00;;;;;;;;4741278;29;45509;-90
2023/09/03 13:35:01;;;;;;;;;9.00;9.00;;;;;;;;4757673;29;45608;-91
2023/09/03 13:37:26;;;;;;;;;7.00;7.00;;;;;;;;4745406;29;46289;-90
2023/09/03 13:39:51;;;;;;;;;8.00;8.00;;;;;;;;4740152;29;45431;-90
2023/09/03 13:42:16;;;;;;;;;7.00;6.33;;;;;;;;4728958;29;45279;-91
2023/09/03 13:44:41;;;;;;;;;6.33;6.33;;;;;;;;4756058;29;45541;-91
2023/09/03 13:47:07;;;;;;;;;7.67;7.67;;;;;;;;4740724;29;46028;-90
2023/09/03 13:49:32;;;;;;;;;7.00;7.00;;;;;;;;4758173;29;45251;-91
2023/09/03 13:51:57;;;;;;;;;5.67;5.67;;;;;;;;4745642;29;45411;-91
2023/09/03 13:54:22;;;;;;;;;8.00;8.00;;;;;;;;4757465;29;45223;-90
2023/09/03 13:56:48;;;;;;;;;7.00;7.00;;;;;;;;4756822;29;45307;-90
2023/09/03 13:59:13;;;;;;;;;7.00;7.00;;;;;;;;4756861;29;45235;-91
2023/09/03 14:01:38;;;;;;;;;8.00;8.00;;;;;;;;4750630;29;45400;-91
2023/09/03 14:04:04;;;;;;;;;6.00;6.00;;;;;;;;4750533;29;47113;-91
2023/09/03 14:06:29;;;;;;;;;7.33;7.33;;;;;;;;4750535;29;46559;-91
2023/09/03 14:08:56;;;;;;;;;6.67;6.67;;;;;;;;4757026;29;45221;-91
2023/09/03 14:11:22;;;;;;;;;5.00;5.00;;;;;;;;4741053;29;45456;-91
2023/09/03 14:13:48;;;;;;;;;6.67;6.67;;;;;;;;4754665;29;45269;-91
2023/09/03 14:16:14;;;;;;;;;7.00;7.00;;;;;;;;4757736;29;45538;-91
2023/09/03 14:18:39;;;;;;;;;8.00;8.00;;;;;;;;4746787;29;45400;-91
2023/09/03 14:21:05;;;;;;;;;4.67;4.67;;;;;;;;4744604;29;45314;-90
2023/09/03 14:23:30;;;;;;;;;6.00;6.00;;;;;;;;4750935;29;45332;-91
2023/09/03 14:25:55;;;;;;;;;6.00;6.00;;;;;;;;4739827;30;45400;-90
2023/09/03 14:28:21;;;;;;;;;4.67;4.67;;;;;;;;4744891;29;45529;-91
2023/09/03 14:30:46;;;;;;;;;6.00;6.00;;;;;;;;4745097;29;45508;-91
2023/09/03 14:33:11;;;;;;;;;5.67;5.67;;;;;;;;4752083;29;45403;-91
2023/09/03 14:35:36;;;;;;;;;6.33;6.33;;;;;;;;4751047;29;45564;-91
2023/09/03 14:38:02;;;;;;;;;5.00;5.00;;;;;;;;4749721;29;45384;-91
2023/09/03 14:40:27;;;;;;;;;5.00;5.00;;;;;;;;4743995;29;45621;-91
2023/09/03 14:42:52;;;;;;;;;5.00;5.00;;;;;;;;4743950;29;45441;-91
2023/09/03 14:45:18;;;;;;;;;3.00;3.00;;;;;;;;4752872;29;46135;-90
2023/09/03 14:47:43;;;;;;;;;5.00;5.00;;;;;;;;4751113;29;45481;-91
2023/09/03 14:50:08;;;;;;;;;6.33;6.33;;;;;;;;4758325;29;45444;-91
2023/09/03 14:52:34;;;;;;;;;6.00;6.00;;;;;;;;4753897;29;46094;-91
2023/09/03 14:54:59;;;;;;;;;5.67;5.67;;;;;;;;4754457;29;46441;-91
2023/09/03 14:57:24;;;;;;;;;5.33;5.33;;;;;;;;4752666;29;45341;-91
2023/09/03 14:59:53;;;;;;;;;4.67;4.67;;;;;;;;4747495;29;45591;-91
2023/09/03 15:02:18;;;;;;;;;5.00;5.00;;;;;;;;4748738;29;45599;-91
2023/09/03 15:04:44;;;;;;;;;4.00;4.00;;;;;;;;4745395;29;46336;-91
2023/09/03 15:07:09;;;;;;;;;4.33;4.33;;;;;;;;4746685;29;45488;-90
2023/09/03 15:09:34;;;;;;;;;4.67;4.67;;;;;;;;4758916;29;45293;-91
2023/09/03 15:11:59;;;;;;;;;6.67;5.00;;;;;;;;4753413;29;45462;-91
2023/09/03 15:14:24;;;;;;;;;6.67;6.67;;;;;;;;4748858;29;45476;-91
2023/09/03 15:16:50;;;;;;;;;4.67;4.67;;;;;;;;4751062;29;45437;-91
2023/09/03 15:19:15;;;;;;;;;6.00;6.00;;;;;;;;4765133;29;45511;-91
2023/09/03 15:21:43;;;;;;;;;4.00;4.00;;;;;;;;4756481;29;45239;-91
2023/09/03 15:24:08;;;;;;;;;3.00;3.00;;;;;;;;4753844;29;45426;-91
2023/09/03 15:26:33;;;;;;;;;4.00;4.00;;;;;;;;4743060;29;45638;-91
2023/09/03 15:28:58;;;;;;;;;5.67;5.67;;;;;;;;4758366;29;45392;-90
2023/09/03 15:31:24;;;;;;;;;4.00;4.00;;;;;;;;4743049;29;45518;-91
2023/09/03 15:33:49;;;;;;;;;4.33;4.33;;;;;;;;4744901;29;45223;-91
2023/09/03 15:36:14;;;;;;;;;4.67;4.67;;;;;;;;4753483;29;45366;-91
2023/09/03 15:38:40;;;;;;;;;5.33;5.33;;;;;;;;4759333;29;45227;-91
2023/09/03 15:41:05;;;;;;;;;5.00;5.00;;;;;;;;4745415;29;45208;-91
2023/09/03 15:43:30;;;;;;;;;4.33;4.33;;;;;;;;4747687;29;45546;-91
2023/09/03 15:45:55;;;;;;;;;5.00;5.00;;;;;;;;4751953;29;45334;-91
2023/09/03 15:48:21;;;;;;;;;4.00;4.00;;;;;;;;4759644;29;45247;-91
2023/09/03 15:50:46;;;;;;;;;4.00;4.00;;;;;;;;4747682;29;45232;-91
2023/09/03 15:53:12;;;;;;;;;6.00;6.00;;;;;;;;4751372;29;45569;-91
2023/09/03 15:55:37;;;;;;;;;5.00;5.00;;;;;;;;4749054;29;45465;-91
2023/09/03 15:58:03;;;;;;;;;3.00;3.00;;;;;;;;4764019;29;45511;-91
2023/09/03 16:00:29;;;;;;;;;4.00;4.00;;;;;;;;4755681;29;45525;-93
2023/09/03 16:02:54;;;;;;;;;3.33;3.33;;;;;;;;4741019;29;47268;-91
2023/09/03 16:05:20;;;;;;;;;4.00;4.00;;;;;;;;4752683;29;45638;-96
2023/09/03 16:07:45;;;;;;;;;4.00;4.00;;;;;;;;4727316;30;45803;-91
2023/09/03 16:10:10;;;;;;;;;5.00;5.00;;;;;;;;4749614;29;45570;-96
2023/09/03 16:12:35;;;;;;;;;6.33;5.00;;;;;;;;4736665;29;46948;-92
2023/09/03 16:15:02;;;;;;;;;5.00;5.00;;;;;;;;4745619;29;45670;-92
2023/09/03 16:17:27;;;;;;;;;4.67;4.67;;;;;;;;4751572;29;45540;-91
2023/09/03 16:19:53;;;;;;;;;5.33;5.33;;;;;;;;4751524;29;45597;-91
2023/09/03 16:22:19;;;;;;;;;7.00;7.00;;;;;;;;4743440;29;46801;-91
2023/09/03 16:24:44;;;;;;;;;6.00;6.00;;;;;;;;4758981;29;46589;-91
2023/09/03 16:27:09;;;;;;;;;4.33;4.33;;;;;;;;4759436;29;45250;-91
2023/09/03 16:29:36;;;;;;;;;6.00;6.00;;;;;;;;4758936;29;45238;-91
2023/09/03 16:32:02;;;;;;;;;4.00;4.00;;;;;;;;4753634;29;45352;-92
2023/09/03 16:34:28;;;;;;;;;4.33;4.33;;;;;;;;4753958;29;45463;-91
2023/09/03 16:36:53;;;;;;;;;4.67;4.67;;;;;;;;4735959;30;45300;-91
2023/09/03 16:39:18;;;;;;;;;5.00;5.00;;;;;;;;4737219;29;45499;-91
2023/09/03 16:41:43;;;;;;;;;7.00;7.00;;;;;;;;4751523;29;46142;-90
2023/09/03 16:44:09;;;;;;;;;5.33;5.33;;;;;;;;4740788;30;45366;-90
2023/09/03 16:46:34;;;;;;;;;6.67;6.67;;;;;;;;4749924;29;45481;-90
2023/09/03 16:48:59;;;;;;;;;5.67;5.67;;;;;;;;4732226;30;45282;-90
2023/09/03 16:51:29;;;;;;;;;7.00;5.00;;;;;;;;4745829;29;45534;-90
2023/09/03 16:53:54;;;;;;;;;7.00;7.00;;;;;;;;4736846;29;45335;-90
2023/09/03 16:56:19;;;;;;;;;5.33;5.33;;;;;;;;4759037;29;45332;-90
2023/09/03 16:58:44;;;;;;;;;6.00;6.00;;;;;;;;4759467;29;45475;-90
2023/09/03 17:01:09;;;;;;;;;7.00;7.00;;;;;;;;4745983;29;45395;-90
2023/09/03 17:03:35;;;;;;;;;6.67;6.67;;;;;;;;4741728;29;45294;-90
2023/09/03 17:06:01;;;;;;;;;9.00;9.00;;;;;;;;4757044;29;45326;-90
2023/09/03 17:08:26;;;;;;;;;5.67;5.67;;;;;;;;4748337;29;45224;-90
2023/09/03 17:10:52;;;;;;;;;8.33;8.33;;;;;;;;4750944;29;45355;-91
2023/09/03 17:13:17;;;;;;;;;7.67;7.67;;;;;;;;4742526;29;45157;-91
2023/09/03 17:15:42;;;;;;;;;7.00;7.00;;;;;;;;4757542;29;45303;-91
2023/09/03 17:18:09;;;;;;;;;6.00;6.00;;;;;;;;4738614;29;45426;-91
2023/09/03 17:20:38;;;;;;;;;7.00;7.00;;;;;;;;4740484;30;45458;-91
2023/09/03 17:23:03;;;;;;;;;6.67;6.67;;;;;;;;4740468;30;45469;-90
2023/09/03 17:25:29;;;;;;;;;7.33;7.33;;;;;;;;4754059;29;45313;-90
2023/09/03 17:27:54;;;;;;;;;7.00;7.00;;;;;;;;4747459;29;45323;-90
2023/09/03 17:30:19;;;;;;;;;6.00;6.00;;;;;;;;4758285;29;45413;-91
2023/09/03 17:32:45;;;;;;;;;6.33;6.33;;;;;;;;4738307;30;45598;-90
2023/09/03 17:35:11;;;;;;;;;5.00;5.00;;;;;;;;4738831;30;45317;-91
2023/09/03 17:37:37;;;;;;;;;6.00;6.00;;;;;;;;4749606;29;45411;-91
2023/09/03 17:40:06;;;;;;;;;7.67;7.67;;;;;;;;4751271;29;46208;-91
2023/09/03 17:42:31;;;;;;;;;6.33;6.33;;;;;;;;4756463;29;45504;-91
2023/09/03 17:44:59;;;;;;;;;7.67;7.67;;;;;;;;4756804;29;45291;-91
2023/09/03 17:47:24;;;;;;;;;9.00;9.00;;;;;;;;4756359;29;45499;-91
2023/09/03 17:52:47;;;;;;;;;;;;;;;;;;;;;
2023/09/03 17:55:13;;;;;;;;;8.33;8.33;;;;;;;;4751877;29;67067;-95
2023/09/03 17:57:39;;;;;;;;;6.67;6.67;;;;;;;;4744443;29;45629;-95
2023/09/03 18:00:04;;;;;;;;;27.00;27.00;;;;;;;;4753029;29;46245;-95
2023/09/03 18:02:30;;;;;;;;;22.67;22.67;;;;;;;;4737289;29;45978;-94
2023/09/03 18:04:55;;;;;;;;;14.33;14.33;;;;;;;;4732371;29;45468;-94
2023/09/03 18:07:20;;;;;;;;;8.33;8.33;;;;;;;;4748339;29;45386;-95
2023/09/03 18:09:45;;;;;;;;;11.33;11.33;;;;;;;;4749324;29;45427;-95
2023/09/03 18:12:11;;;;;;;;;10.33;10.33;;;;;;;;4738086;29;45717;-95
2023/09/03 18:14:36;;;;;;;;;8.33;8.33;;;;;;;;4738285;30;45494;-96
2023/09/03 18:17:01;;;;;;;;;10.00;10.00;;;;;;;;4737352;29;45355;-95
2023/09/03 18:19:27;;;;;;;;;9.67;9.67;;;;;;;;4735963;29;47304;-95
2023/09/03 18:21:53;;;;;;;;;10.00;10.00;;;;;;;;4746986;29;45420;-95
2023/09/03 18:24:18;;;;;;;;;10.67;10.67;;;;;;;;4724111;30;45475;-95
2023/09/03 18:26:43;;;;;;;;;9.00;9.00;;;;;;;;4740735;29;45448;-96
2023/09/03 18:29:09;;;;;;;;;12.00;12.00;;;;;;;;4741198;29;47681;-96
2023/09/03 18:31:34;;;;;;;;;9.67;9.67;;;;;;;;4744873;29;45365;-95
2023/09/03 18:34:00;;;;;;;;;10.00;10.00;;;;;;;;4739967;30;45440;-95
2023/09/03 18:36:25;;;;;;;;;10.33;10.33;;;;;;;;4749880;29;45435;-95
2023/09/03 18:38:51;;;;;;;;;10.00;10.00;;;;;;;;4741144;29;46285;-95
2023/09/03 18:41:16;;;;;;;;;8.67;8.67;;;;;;;;4739870;29;45238;-94
2023/09/03 18:43:43;;;;;;;;;8.33;8.33;;;;;;;;4750558;29;45510;-95
2023/09/03 18:46:09;;;;;;;;;8.67;8.67;;;;;;;;4743904;29;45320;-95
2023/09/03 18:48:34;;;;;;;;;8.33;8.33;;;;;;;;4746173;29;46207;-96
2023/09/03 18:51:03;;;;;;;;;8.67;8.67;;;;;;;;4746719;29;45557;-94
2023/09/03 18:53:28;;;;;;;;;10.67;10.67;;;;;;;;4728335;30;45646;-94
2023/09/03 18:55:54;;;;;;;;;10.33;10.33;;;;;;;;4745198;29;45496;-95
2023/09/03 18:58:19;;;;;;;;;9.00;9.00;;;;;;;;4751914;29;46302;-94
2023/09/03 19:00:44;;;;;;;;;10.00;10.00;;;;;;;;4723371;29;45387;-95
2023/09/03 19:03:10;;;;;;;;;9.33;9.33;;;;;;;;4730804;30;45458;-95
2023/09/03 19:05:40;;;;;;;;;9.33;9.33;;;;;;;;4739759;30;45358;-94
2023/09/03 19:08:06;;;;;;;;;12.33;12.33;;;;;;;;4730048;30;45690;-95
2023/09/03 19:10:32;;;;;;;;;8.00;8.00;;;;;;;;4731118;30;45318;-95
2023/09/03 19:12:59;;;;;;;;;6.33;6.33;;;;;;;;4722328;30;45483;-95
2023/09/03 19:15:25;;;;;;;;;10.33;10.33;;;;;;;;4730998;30;45382;-96
2023/09/03 19:17:50;;;;;;;;;8.67;8.67;;;;;;;;4738406;29;45410;-96
2023/09/03 19:20:15;;;;;;;;;10.33;10.33;;;;;;;;4726845;29;45330;-96
2023/09/03 19:22:43;;;;;;;;;8.67;8.67;;;;;;;;4721889;30;45340;-96
2023/09/03 19:25:08;;;;;;;;;10.00;10.00;;;;;;;;4736597;30;45316;-95
2023/09/03 19:27:35;;;;;;;;;8.67;8.67;;;;;;;;4724391;30;45182;-95
2023/09/03 19:30:01;;;;;;;;;9.67;9.67;;;;;;;;4724133;30;45492;-94
2023/09/03 19:32:30;;;;;;;;;10.67;10.67;;;;;;;;4708732;30;45617;-95
2023/09/03 19:34:55;;;;;;;;;10.67;10.67;;;;;;;;4734731;30;45548;-95
2023/09/03 19:37:21;;;;;;;;;9.00;9.00;;;;;;;;4722468;30;46258;-96
2023/09/03 19:39:46;;;;;;;;;7.33;7.33;;;;;;;;4708581;30;45752;-95
2023/09/03 19:42:11;;;;;;;;;9.33;9.33;;;;;;;;4742211;30;45222;-95
2023/09/03 19:44:36;;;;;;;;;8.00;8.00;;;;;;;;4736825;30;45374;-95
2023/09/03 19:47:01;;;;;;;;;11.00;11.00;;;;;;;;4724636;30;45263;-95
2023/09/03 19:49:29;;;;;;;;;10.00;10.00;;;;;;;;4741832;30;45215;-95
2023/09/03 19:51:55;;;;;;;;;17.00;15.33;;;;;;;;4741427;30;45513;-96
2023/09/03 19:54:22;;;;;;;;;13.67;13.67;;;;;;;;4740996;30;45370;-95
2023/09/03 19:56:47;;;;;;;;;13.00;13.00;;;;;;;;4742477;29;45962;-96
2023/09/03 19:59:12;;;;;;;;;9.67;9.67;;;;;;;;4736490;30;45519;-95
2023/09/03 20:01:37;;;;;;;;;12.00;12.00;;;;;;;;4753962;29;45350;-96
2023/09/03 20:04:03;;;;;;;;;10.00;10.00;;;;;;;;4759204;29;45443;-95
2023/09/03 20:06:28;;;;;;;;;12.33;12.33;;;;;;;;4744326;29;45577;-95
2023/09/03 20:08:53;;;;;;;;;9.00;9.00;;;;;;;;4725568;30;45299;-95
2023/09/03 20:11:19;;;;;;;;;10.33;10.33;;;;;;;;4741777;30;45400;-95
2023/09/03 20:13:44;;;;;;;;;12.00;12.00;;;;;;;;4742165;29;45355;-95
2023/09/03 20:16:10;;;;;;;;;11.00;11.00;;;;;;;;4756200;29;46141;-95
2023/09/03 20:18:35;;;;;;;;;11.00;11.00;;;;;;;;4753729;29;45451;-95
2023/09/03 20:21:01;;;;;;;;;11.33;11.33;;;;;;;;4738581;29;45351;-96
2023/09/03 20:23:26;;;;;;;;;11.00;11.00;;;;;;;;4749755;29;45528;-95
2023/09/03 20:26:05;;;;;;;;;10.67;10.67;;;;;;;;4728271;30;46260;-96
2023/09/03 20:28:31;;;;;;;;;10.33;10.33;;;;;;;;4742681;29;45417;-95
2023/09/03 20:30:57;;;;;;;;;10.00;10.00;;;;;;;;4728649;29;45435;-95
2023/09/03 20:33:23;;;;;;;;;11.33;11.33;;;;;;;;4739221;30;45553;-95
2023/09/03 20:35:49;;;;;;;;;5.33;5.33;;;;;;;;4757436;29;46541;-95
2023/09/03 20:38:17;;;;;;;;;10.33;10.33;;;;;;;;4758025;29;45362;-95
2023/09/03 20:40:42;;;;;;;;;11.00;11.00;;;;;;;;4757421;29;45226;-95
2023/09/03 20:43:07;;;;;;;;;12.67;12.67;;;;;;;;4758181;29;45496;-95
2023/09/03 20:45:33;;;;;;;;;9.00;9.00;;;;;;;;4742644;29;47332;-95
2023/09/03 20:47:58;;;;;;;;;10.00;10.00;;;;;;;;4753723;29;45505;-95
2023/09/03 20:50:24;;;;;;;;;10.00;10.00;;;;;;;;4748843;29;45676;-96
2023/09/03 20:52:51;;;;;;;;;10.00;10.00;;;;;;;;4742953;29;45286;-95
2023/09/03 20:55:16;;;;;;;;;7.67;7.67;;;;;;;;4756914;29;45961;-95
2023/09/03 20:57:42;;;;;;;;;6.00;6.00;;;;;;;;4759634;29;45463;-95
2023/09/03 21:00:08;;;;;;;;;10.00;10.00;;;;;;;;4749480;29;45408;-95
2023/09/03 21:02:34;;;;;;;;;12.00;12.00;;;;;;;;4748699;29;45509;-94
2023/09/03 21:04:59;;;;;;;;;10.00;10.00;;;;;;;;4744206;29;45476;-96
2023/09/03 21:07:24;;;;;;;;;12.00;11.67;;;;;;;;4743945;29;45441;-95
2023/09/03 21:09:50;;;;;;;;;10.33;10.33;;;;;;;;4754376;29;45623;-95
2023/09/03 21:12:15;;;;;;;;;11.33;11.33;;;;;;;;4741035;30;45388;-95
2023/09/03 21:14:44;;;;;;;;;12.00;12.00;;;;;;;;4746616;29;45477;-95
2023/09/03 21:17:09;;;;;;;;;11.33;11.33;;;;;;;;4747688;29;45289;-95
2023/09/03 21:19:35;;;;;;;;;11.67;11.67;;;;;;;;4750481;29;45222;-94